createdAt,value
2023-04-07T08:56:51.145Z,6.00
2023-04-07T08:58:55.746Z,6.00
2023-04-07T09:00:58.845Z,5.76
2023-04-07T09:03:03.671Z,6.21
2023-04-07T09:05:08.670Z,6.52
2023-04-07T09:07:11.140Z,6.78
2023-04-07T09:09:14.957Z,6.96
2023-04-07T09:11:18.178Z,6.71
2023-04-07T09:13:20.861Z,6.50
2023-04-07T09:15:24.016Z,6.69
2023-04-07T09:17:28.299Z,6.25
2023-04-07T09:19:31.048Z,6.72
2023-04-07T09:21:53.594Z,6.73
2023-04-07T09:23:56.302Z,6.75
2023-04-07T09:26:00.286Z,7.17
2023-04-07T09:28:04.747Z,7.49
2023-04-07T09:30:15.825Z,7.21
2023-04-07T09:32:41.464Z,7.07
2023-04-07T09:34:43.910Z,7.36
2023-04-07T09:36:46.824Z,7.71
2023-04-07T09:38:49.157Z,7.64
2023-04-07T09:40:51.531Z,7.93
2023-04-07T09:42:54.720Z,7.95
2023-04-07T09:44:57.040Z,7.82
2023-04-07T09:46:59.597Z,7.96
2023-04-07T09:49:07.289Z,7.62
2023-04-07T09:51:14.881Z,7.82
2023-04-07T09:53:18.229Z,7.91
2023-04-07T09:55:22.732Z,8.35
2023-04-07T09:57:25.462Z,8.38
2023-04-07T09:59:29.128Z,8.62
2023-04-07T10:01:31.862Z,8.50
2023-04-07T10:03:34.910Z,8.38
2023-04-07T10:05:37.449Z,8.20
2023-04-07T10:07:42.621Z,7.94
2023-04-07T10:09:45.502Z,8.13
2023-04-07T10:11:50.225Z,8.26
2023-04-07T10:13:52.597Z,8.54
2023-04-07T10:15:56.365Z,8.48
2023-04-07T10:17:59.954Z,8.56
2023-04-07T10:20:05.144Z,8.44
2023-04-07T10:22:08.087Z,8.55
2023-04-07T10:24:33.726Z,7.83
2023-04-07T10:26:39.981Z,7.08
2023-04-07T10:28:46.202Z,7.47
2023-04-07T10:30:49.432Z,7.68
2023-04-07T10:32:53.728Z,7.85
2023-04-07T10:34:58.179Z,7.74
2023-04-07T10:37:17.875Z,7.95
2023-04-07T10:39:21.330Z,7.89
2023-04-07T10:41:36.646Z,8.04
2023-04-07T10:43:44.289Z,8.37
2023-04-07T10:45:52.365Z,8.58
2023-04-07T10:47:58.106Z,8.87
2023-04-07T10:50:20.682Z,8.42
2023-04-07T10:52:24.178Z,8.67
2023-04-07T10:54:29.208Z,8.76
2023-04-07T10:57:04.947Z,8.96
2023-04-07T10:59:16.921Z,8.53
2023-04-07T11:01:20.405Z,8.26
2023-04-07T11:03:24.373Z,7.55
2023-04-07T11:05:26.904Z,7.31
2023-04-07T11:07:50.305Z,7.68
2023-04-07T11:10:09.327Z,8.01
2023-04-07T11:12:25.028Z,7.42
2023-04-07T11:14:29.083Z,7.45
2023-04-07T11:16:41.838Z,7.74
2023-04-07T11:18:45.390Z,8.23
2023-04-07T11:20:51.705Z,8.53
2023-04-07T11:23:00.256Z,8.64
2023-04-07T11:25:02.696Z,8.13
2023-04-07T11:27:06.601Z,7.97
2023-04-07T11:29:09.134Z,8.08
2023-04-07T11:31:11.842Z,8.11
2023-04-07T11:33:34.936Z,8.40
2023-04-07T11:35:37.271Z,8.88
2023-04-07T11:37:39.589Z,9.16
2023-04-07T11:39:42.683Z,8.84
2023-04-07T11:41:50.048Z,8.76
2023-04-07T11:44:09.982Z,8.37
2023-04-07T11:46:14.854Z,8.57
2023-04-07T11:48:27.958Z,8.86
2023-04-07T11:50:41.359Z,9.28
2023-04-07T11:52:45.592Z,9.17
2023-04-07T11:54:48.133Z,9.37
2023-04-07T11:56:51.882Z,8.91
2023-04-07T11:58:55.648Z,9.08
2023-04-07T12:01:03.498Z,9.15
2023-04-07T12:03:16.349Z,8.77
2023-04-07T12:05:19.096Z,8.33
2023-04-07T12:07:21.427Z,8.32
2023-04-07T12:09:31.243Z,8.38
2023-04-07T12:11:34.681Z,8.20
2023-04-07T12:13:37.918Z,8.08
2023-04-07T12:15:40.561Z,7.18
2023-04-07T12:17:47.707Z,7.01
2023-04-07T12:19:50.477Z,6.92
2023-04-07T12:21:53.208Z,7.03
2023-04-07T12:23:55.518Z,7.24
2023-04-07T12:25:57.879Z,7.25
2023-04-07T12:28:00.510Z,6.60
2023-04-07T12:30:02.859Z,6.65
2023-04-07T12:32:05.500Z,6.96
2023-04-07T12:34:08.170Z,6.82
2023-04-07T12:36:10.781Z,6.96
2023-04-07T12:38:13.733Z,6.86
2023-04-07T12:40:17.899Z,7.01
2023-04-07T12:42:20.504Z,6.71
2023-04-07T12:44:22.916Z,6.56
2023-04-07T12:46:25.655Z,6.62
2023-04-07T12:48:28.041Z,6.92
2023-04-07T12:50:30.579Z,7.39
2023-04-07T12:52:33.349Z,7.62
2023-04-07T12:54:35.838Z,7.67
2023-04-07T12:56:38.287Z,7.68
2023-04-07T12:58:40.963Z,7.15
2023-04-07T13:00:43.311Z,6.95
2023-04-07T13:02:46.036Z,7.08
2023-04-07T13:04:48.719Z,6.98
2023-04-07T13:06:51.428Z,7.08
2023-04-07T13:08:54.011Z,7.05
2023-04-07T13:10:57.268Z,7.27
2023-04-07T13:12:59.783Z,7.28
2023-04-07T13:15:03.174Z,7.35
2023-04-07T13:17:06.948Z,7.31
2023-04-07T13:19:09.586Z,7.21
2023-04-07T13:21:42.906Z,7.31
2023-04-07T13:23:42.611Z,7.21
2023-04-07T13:25:45.774Z,7.01
2023-04-07T13:27:48.324Z,6.91
2023-04-07T13:29:51.004Z,6.82
2023-04-07T13:31:53.307Z,6.96
2023-04-07T13:33:55.649Z,7.12
2023-04-07T13:35:58.335Z,7.06
2023-04-07T13:38:00.805Z,7.30
2023-04-07T13:40:03.291Z,7.16
2023-04-07T13:42:07.008Z,7.22
2023-04-07T13:44:09.399Z,7.25
2023-04-07T13:46:27.964Z,7.09
2023-04-07T13:48:31.744Z,7.23
2023-04-07T13:50:37.023Z,7.28
2023-04-07T13:52:39.399Z,7.38
2023-04-07T13:54:42.423Z,7.27
2023-04-07T13:56:44.803Z,7.38
2023-04-07T13:58:48.029Z,7.40
2023-04-07T14:00:50.644Z,7.43
2023-04-07T14:02:53.404Z,7.39
2023-04-07T14:04:56.141Z,7.31
2023-04-07T14:06:58.424Z,7.15
2023-04-07T14:09:01.203Z,6.99
2023-04-07T14:11:03.766Z,6.93
2023-04-07T14:13:06.970Z,6.63
2023-04-07T14:15:09.973Z,6.64
2023-04-07T14:17:12.306Z,6.85
2023-04-07T14:19:14.604Z,6.94
2023-04-07T14:21:17.642Z,7.07
2023-04-07T14:23:30.257Z,7.14
2023-04-07T14:25:38.825Z,7.27
2023-04-07T14:27:41.518Z,7.23
2023-04-07T14:29:43.829Z,7.31
2023-04-07T14:31:48.630Z,7.21
2023-04-07T14:33:51.524Z,7.11
2023-04-07T14:35:54.121Z,6.98
2023-04-07T14:37:56.733Z,7.00
2023-04-07T14:40:03.130Z,7.11
2023-04-07T14:42:05.713Z,7.13
2023-04-07T14:44:07.923Z,7.24
2023-04-07T14:46:12.253Z,7.21
2023-04-07T14:48:14.751Z,7.22
2023-04-07T14:50:17.423Z,7.17
2023-04-07T14:52:21.947Z,7.14
2023-04-07T14:54:24.516Z,7.22
2023-04-07T14:56:27.378Z,6.97
2023-04-07T14:58:30.059Z,7.01
2023-04-07T15:00:32.593Z,6.90
2023-04-07T15:02:36.608Z,7.11
2023-04-07T15:04:39.637Z,7.18
2023-04-07T15:06:47.306Z,7.03
2023-04-07T15:08:49.739Z,6.81
2023-04-07T15:10:52.411Z,6.79
2023-04-07T15:12:54.730Z,6.62
2023-04-07T15:14:57.655Z,6.89
2023-04-07T15:17:00.245Z,6.95
2023-04-07T15:19:03.120Z,6.86
2023-04-07T15:21:06.085Z,6.83
2023-04-07T15:23:08.730Z,6.75
2023-04-07T15:25:11.159Z,6.88
2023-04-07T15:27:13.498Z,6.93
2023-04-07T15:29:16.081Z,6.90
2023-04-07T15:31:18.528Z,7.10
2023-04-07T15:33:20.901Z,7.13
2023-04-07T15:35:23.514Z,7.15
2023-04-07T15:37:26.452Z,7.16
2023-04-07T15:39:28.765Z,7.12
2023-04-07T15:41:31.694Z,7.23
2023-04-07T15:43:34.613Z,7.24
2023-04-07T15:45:44.551Z,7.16
2023-04-07T15:47:50.040Z,6.89
2023-04-07T15:49:52.556Z,6.89
2023-04-07T15:51:56.149Z,6.88
2023-04-07T15:54:00.070Z,6.82
2023-04-07T15:56:02.488Z,6.80
2023-04-07T15:58:05.289Z,6.92
2023-04-07T16:00:09.175Z,6.95
2023-04-07T16:02:14.028Z,6.96
2023-04-07T16:04:17.050Z,6.92
2023-04-07T16:06:19.695Z,6.97
2023-04-07T16:08:22.422Z,6.83
2023-04-07T16:10:24.819Z,6.87
2023-04-07T16:12:27.238Z,6.91
2023-04-07T16:14:31.311Z,6.98
2023-04-07T16:16:36.069Z,6.98
2023-04-07T16:18:38.463Z,6.97
2023-04-07T16:20:41.372Z,6.90
2023-04-07T16:22:46.579Z,6.81
2023-04-07T16:24:48.942Z,6.86
2023-04-07T16:26:52.513Z,6.82
2023-04-07T16:28:54.976Z,6.86
2023-04-07T16:30:57.299Z,6.80
2023-04-07T16:33:00.666Z,6.78
2023-04-07T16:35:03.837Z,6.74
2023-04-07T16:37:06.375Z,6.72
2023-04-07T16:39:08.945Z,6.58
2023-04-07T16:41:11.432Z,6.62
2023-04-07T16:43:13.923Z,6.55
2023-04-07T16:45:16.509Z,6.30
2023-04-07T16:47:18.816Z,6.51
2023-04-07T16:49:21.235Z,6.49
2023-04-07T16:51:24.878Z,6.49
2023-04-07T16:53:27.299Z,6.46
2023-04-07T16:55:29.683Z,6.68
2023-04-07T16:57:32.434Z,6.55
2023-04-07T16:59:35.559Z,6.44
2023-04-07T17:01:42.004Z,6.51
2023-04-07T17:03:48.660Z,6.58
2023-04-07T17:05:51.519Z,6.60
2023-04-07T17:07:56.076Z,6.54
2023-04-07T17:09:59.913Z,6.47
2023-04-07T17:12:03.199Z,6.38
2023-04-07T17:14:05.965Z,6.40
2023-04-07T17:16:13.872Z,6.51
2023-04-07T17:18:16.349Z,6.60
2023-04-07T17:20:18.773Z,6.51
2023-04-07T17:22:21.461Z,6.45
2023-04-07T17:24:23.922Z,6.39
2023-04-07T17:26:26.553Z,6.34
2023-04-07T17:28:30.263Z,6.32
2023-04-07T17:30:33.118Z,6.37
2023-04-07T17:32:35.513Z,6.29
2023-04-07T17:34:38.206Z,6.35
2023-04-07T17:36:41.399Z,6.29
2023-04-07T17:38:45.320Z,6.34
2023-04-07T17:40:47.980Z,6.37
2023-04-07T17:42:50.255Z,6.54
2023-04-07T17:44:53.869Z,6.49
2023-04-07T17:46:56.824Z,6.27
2023-04-07T17:48:59.441Z,6.18
2023-04-07T17:51:01.847Z,6.27
2023-04-07T17:53:04.658Z,6.12
2023-04-07T17:55:08.163Z,6.08
2023-04-07T17:57:11.516Z,6.27
2023-04-07T17:59:14.194Z,6.29
2023-04-07T18:01:17.075Z,6.29
2023-04-07T18:03:19.799Z,6.26
2023-04-07T18:05:22.649Z,6.19
2023-04-07T18:07:24.935Z,6.19
2023-04-07T18:09:27.751Z,6.27
2023-04-07T18:11:30.114Z,6.26
2023-04-07T18:13:32.856Z,6.32
2023-04-07T18:15:35.755Z,6.15
2023-04-07T18:17:38.316Z,6.21
2023-04-07T18:19:40.684Z,6.30
2023-04-07T18:21:43.709Z,6.19
2023-04-07T18:23:46.536Z,6.15
2023-04-07T18:25:49.480Z,6.11
2023-04-07T18:27:52.360Z,6.16
2023-04-07T18:29:55.934Z,6.06
2023-04-07T18:31:58.306Z,6.04
2023-04-07T18:34:00.930Z,5.90
2023-04-07T18:36:08.178Z,5.80
2023-04-07T18:38:10.613Z,6.10
2023-04-07T18:40:13.651Z,5.71
2023-04-07T18:42:16.173Z,5.75
2023-04-07T18:44:18.566Z,5.70
2023-04-07T18:46:21.683Z,5.70
2023-04-07T18:48:24.395Z,5.77
2023-04-07T18:50:26.690Z,5.73
2023-04-07T18:52:29.365Z,5.77
2023-04-07T18:54:31.948Z,5.74
2023-04-07T18:56:34.758Z,5.73
2023-04-07T18:58:43.854Z,5.77
2023-04-07T19:00:49.503Z,5.82
2023-04-07T19:02:52.050Z,5.89
2023-04-07T19:04:54.787Z,5.90
2023-04-07T19:06:57.666Z,5.77
2023-04-07T19:09:00.179Z,5.70
2023-04-07T19:11:02.893Z,5.85
2023-04-07T19:13:05.479Z,5.66
2023-04-07T19:15:08.270Z,5.77
2023-04-07T19:17:11.878Z,5.58
2023-04-07T19:19:14.394Z,5.55
2023-04-07T19:21:17.533Z,5.60
2023-04-07T19:23:20.139Z,5.66
2023-04-07T19:25:23.108Z,5.57
2023-04-07T19:27:25.847Z,5.69
2023-04-07T19:29:28.592Z,5.77
2023-04-07T19:31:31.497Z,5.78
2023-04-07T19:33:34.827Z,5.69
2023-04-07T19:35:39.211Z,5.77
2023-04-07T19:37:41.808Z,5.58
2023-04-07T19:39:55.704Z,5.55
2023-04-07T19:42:05.178Z,5.48
2023-04-07T19:44:07.616Z,5.59
2023-04-07T19:46:10.046Z,5.56
2023-04-07T19:48:12.774Z,5.51
2023-04-07T19:50:15.182Z,5.57
2023-04-07T19:52:17.556Z,5.35
2023-04-07T19:54:20.280Z,5.10
2023-04-07T19:56:23.146Z,5.15
2023-04-07T19:58:25.563Z,5.27
2023-04-07T20:00:30.649Z,5.16
2023-04-07T20:02:35.477Z,5.20
2023-04-07T20:04:37.822Z,5.22
2023-04-07T20:06:40.763Z,5.25
2023-04-07T20:08:43.787Z,5.26
2023-04-07T20:10:46.393Z,5.12
2023-04-07T20:12:48.725Z,5.13
2023-04-07T20:14:51.689Z,5.23
2023-04-07T20:16:54.238Z,5.41
2023-04-07T20:18:56.535Z,5.49
2023-04-07T20:21:05.791Z,5.21
2023-04-07T20:23:08.169Z,5.20
2023-04-07T20:25:10.648Z,5.22
2023-04-07T20:27:13.330Z,5.36
2023-04-07T20:29:15.808Z,5.43
2023-04-07T20:31:19.289Z,5.30
2023-04-07T20:33:22.326Z,5.29
2023-04-07T20:35:24.726Z,5.28
2023-04-07T20:37:27.868Z,5.05
2023-04-07T20:39:30.901Z,5.19
2023-04-07T20:41:33.285Z,5.16
2023-04-07T20:43:35.803Z,4.92
2023-04-07T20:45:38.992Z,4.97
2023-04-07T20:47:41.658Z,4.93
2023-04-07T20:49:44.058Z,5.04
2023-04-07T20:51:47.206Z,5.18
2023-04-07T20:53:49.542Z,5.16
2023-04-07T20:55:52.425Z,5.15
2023-04-07T20:57:55.147Z,5.05
2023-04-07T20:59:57.599Z,5.07
2023-04-07T21:02:00.004Z,5.06
2023-04-07T21:04:02.858Z,4.84
2023-04-07T21:06:05.778Z,4.82
2023-04-07T21:08:08.161Z,4.79
2023-04-07T21:10:10.929Z,4.81
2023-04-07T21:12:14.252Z,4.61
2023-04-07T21:14:16.633Z,4.63
2023-04-07T21:16:19.351Z,4.69
2023-04-07T21:18:21.888Z,4.49
2023-04-07T21:20:24.194Z,4.49
2023-04-07T21:22:28.114Z,4.73
2023-04-07T21:24:32.054Z,4.81
2023-04-07T21:26:34.337Z,4.90
2023-04-07T21:28:37.203Z,4.72
2023-04-07T21:30:42.644Z,4.78
2023-04-07T21:32:45.573Z,4.80
2023-04-07T21:34:52.139Z,4.68
2023-04-07T21:36:54.432Z,4.79
2023-04-07T21:38:57.190Z,4.79
2023-04-07T21:40:59.826Z,4.81
2023-04-07T21:43:02.093Z,4.58
2023-04-07T21:45:04.816Z,4.70
2023-04-07T21:47:07.429Z,4.71
2023-04-07T21:49:09.944Z,4.65
2023-04-07T21:51:12.341Z,4.32
2023-04-07T21:53:14.899Z,4.45
2023-04-07T21:55:18.893Z,4.51
2023-04-07T21:57:21.212Z,4.81
2023-04-07T21:59:23.814Z,4.43
2023-04-07T22:01:27.196Z,4.40
2023-04-07T22:03:30.682Z,4.39
2023-04-07T22:05:34.012Z,4.41
